createdAt,value
2022-11-12T00:01:13.720Z,5.90
2022-11-12T00:03:40.365Z,5.80
2022-11-12T00:06:07.124Z,5.80
2022-11-12T00:08:33.850Z,5.70
2022-11-12T00:11:00.553Z,5.70
2022-11-12T00:13:27.145Z,7.30
2022-11-12T00:15:53.765Z,5.80
2022-11-12T00:18:20.405Z,5.80
2022-11-12T00:20:47.055Z,5.70
2022-11-12T00:23:13.674Z,5.70
2022-11-12T00:25:40.352Z,5.70
2022-11-12T00:28:08.199Z,5.80
2022-11-12T00:30:37.081Z,5.70
2022-11-12T00:33:04.316Z,7.20
2022-11-12T00:35:32.142Z,5.70
2022-11-12T00:37:59.095Z,5.80
2022-11-12T00:40:26.059Z,5.80
2022-11-12T00:42:53.340Z,5.70
2022-11-12T00:45:20.489Z,6.60
2022-11-12T00:47:47.250Z,5.70
2022-11-12T00:50:15.965Z,5.70
2022-11-12T00:52:42.848Z,5.80
2022-11-12T00:55:09.485Z,5.70
2022-11-12T00:57:36.130Z,5.70
2022-11-12T01:00:03.582Z,5.60
2022-11-12T01:02:30.231Z,5.60
2022-11-12T01:04:56.888Z,5.50
2022-11-12T01:07:23.711Z,5.50
2022-11-12T01:09:50.343Z,5.40
2022-11-12T01:12:16.995Z,5.40
2022-11-12T01:14:43.629Z,5.40
2022-11-12T01:17:10.316Z,5.30
2022-11-12T01:19:36.907Z,5.30
2022-11-12T01:22:03.550Z,5.30
2022-11-12T01:24:30.146Z,5.30
2022-11-12T01:26:56.779Z,5.30
2022-11-12T01:29:23.611Z,5.10
2022-11-12T01:31:50.219Z,5.10
2022-11-12T01:34:16.845Z,5.10
2022-11-12T01:36:43.606Z,6.70
2022-11-12T01:39:10.204Z,5.10
2022-11-12T01:41:37.754Z,5.10
2022-11-12T01:44:07.414Z,5.10
2022-11-12T01:46:35.006Z,5.10
2022-11-12T01:49:04.323Z,5.10
2022-11-12T01:51:37.125Z,5.10
2022-11-12T01:54:06.386Z,5.00
2022-11-12T01:56:32.988Z,4.90
2022-11-12T01:59:02.573Z,5.00
2022-11-12T02:01:29.216Z,6.40
2022-11-12T02:03:56.453Z,5.00
2022-11-12T02:06:23.750Z,4.90
2022-11-12T02:08:50.465Z,5.00
2022-11-12T02:11:18.350Z,6.50
2022-11-12T02:13:58.044Z,5.90
2022-11-12T02:16:26.481Z,5.00
2022-11-12T02:18:53.109Z,5.00
2022-11-12T02:21:20.609Z,5.00
2022-11-12T02:23:47.283Z,5.00
2022-11-12T02:26:13.940Z,5.00
2022-11-12T02:28:40.596Z,5.00
2022-11-12T02:31:07.306Z,5.00
2022-11-12T02:33:33.889Z,5.00
2022-11-12T02:36:00.514Z,5.00
2022-11-12T02:38:27.431Z,5.10
2022-11-12T02:40:54.241Z,5.80
2022-11-12T02:43:21.359Z,5.00
2022-11-12T02:45:48.032Z,5.00
2022-11-12T02:48:19.074Z,6.10
2022-11-12T02:50:47.505Z,5.00
2022-11-12T02:53:14.131Z,5.10
2022-11-12T02:55:42.413Z,5.10
2022-11-12T02:58:09.489Z,5.10
2022-11-12T03:00:36.140Z,5.20
2022-11-12T03:03:02.868Z,5.10
2022-11-12T03:05:30.957Z,5.00
2022-11-12T03:07:58.322Z,5.00
2022-11-12T03:10:25.936Z,5.00
2022-11-12T03:12:53.337Z,5.00
2022-11-12T03:15:20.322Z,5.00
2022-11-12T03:17:47.023Z,4.90
2022-11-12T03:20:13.897Z,4.90
2022-11-12T03:22:40.705Z,4.80
2022-11-12T03:25:08.738Z,4.80
2022-11-12T03:27:35.370Z,4.70
2022-11-12T03:30:02.011Z,4.80
2022-11-12T03:32:28.697Z,4.70
2022-11-12T03:34:55.695Z,4.80
2022-11-12T03:37:22.470Z,6.50
2022-11-12T03:39:49.101Z,4.90
2022-11-12T03:42:15.750Z,4.80
2022-11-12T03:44:42.378Z,4.80
2022-11-12T03:47:09.017Z,4.80
2022-11-12T03:49:35.686Z,4.90
2022-11-12T03:52:02.343Z,4.80
2022-11-12T03:54:29.083Z,4.80
2022-11-12T03:56:55.788Z,4.80
2022-11-12T03:59:22.419Z,4.80
2022-11-12T04:01:49.010Z,6.00
2022-11-12T04:04:15.693Z,4.90
2022-11-12T04:07:01.238Z,4.80
2022-11-12T04:09:27.923Z,4.70
2022-11-12T04:11:54.555Z,4.70
2022-11-12T04:14:21.218Z,4.70
2022-11-12T04:17:06.635Z,4.60
2022-11-12T04:19:51.856Z,4.50
2022-11-12T04:22:18.529Z,4.40
2022-11-12T04:25:03.919Z,4.30
2022-11-12T04:27:32.004Z,4.20
2022-11-12T04:30:18.584Z,4.10
2022-11-12T04:32:54.625Z,4.10
2022-11-12T04:35:22.447Z,4.00
2022-11-12T04:37:49.104Z,3.90
2022-11-12T04:40:39.083Z,3.90
2022-11-12T04:43:24.817Z,3.90
2022-11-12T04:45:52.645Z,3.80
2022-11-12T04:48:19.883Z,3.80
2022-11-12T04:50:57.862Z,3.90
2022-11-12T04:53:24.525Z,3.80
2022-11-12T04:55:52.080Z,3.90
2022-11-12T04:58:19.336Z,5.20
2022-11-12T05:00:46.370Z,5.50
2022-11-12T05:03:13.011Z,3.90
2022-11-12T05:05:39.623Z,4.00
2022-11-12T05:08:06.264Z,3.90
2022-11-12T05:10:33.284Z,4.00
2022-11-12T05:13:00.057Z,4.00
2022-11-12T05:15:26.882Z,4.10
2022-11-12T05:17:53.468Z,4.10
2022-11-12T05:20:20.168Z,4.10
2022-11-12T05:23:04.558Z,4.10
2022-11-12T05:25:32.745Z,5.70
2022-11-12T05:27:59.444Z,4.00
2022-11-12T05:30:26.087Z,4.00
2022-11-12T05:32:52.668Z,4.10
2022-11-12T05:35:19.381Z,4.10
2022-11-12T05:37:46.078Z,4.20
2022-11-12T05:40:13.029Z,4.30
2022-11-12T05:42:39.641Z,4.20
2022-11-12T05:45:06.692Z,4.20
2022-11-12T05:47:33.234Z,4.20
2022-11-12T05:49:59.836Z,4.20
2022-11-12T05:52:26.494Z,4.20
2022-11-12T05:54:53.192Z,4.20
2022-11-12T05:57:19.806Z,4.30
2022-11-12T05:59:46.433Z,4.30
2022-11-12T06:02:13.098Z,4.40
2022-11-12T06:04:39.835Z,4.40
2022-11-12T06:07:06.578Z,4.50
2022-11-12T06:09:33.383Z,4.40
2022-11-12T06:12:00.092Z,4.50
2022-11-12T06:14:26.775Z,4.40
2022-11-12T06:16:53.367Z,4.40
2022-11-12T06:19:20.031Z,4.30
2022-11-12T06:21:46.627Z,4.20
2022-11-12T06:24:13.550Z,4.20
2022-11-12T06:26:40.268Z,4.20
2022-11-12T06:29:06.951Z,4.20
2022-11-12T06:31:33.559Z,4.20
2022-11-12T06:34:00.206Z,4.20
2022-11-12T06:36:28.752Z,4.20
2022-11-12T06:38:55.448Z,4.20
2022-11-12T06:41:22.191Z,4.20
2022-11-12T06:43:48.807Z,4.20
2022-11-12T06:46:16.175Z,4.20
2022-11-12T06:48:43.235Z,4.10
2022-11-12T06:51:12.259Z,5.10
2022-11-12T06:53:38.986Z,4.00
2022-11-12T06:56:06.394Z,4.10
2022-11-12T06:58:33.128Z,4.10
2022-11-12T07:01:09.966Z,4.10
2022-11-12T07:03:38.485Z,4.10
2022-11-12T07:06:09.340Z,4.10
2022-11-12T07:08:36.062Z,4.20
2022-11-12T07:11:02.763Z,4.20
2022-11-12T07:13:30.528Z,4.30
2022-11-12T07:15:58.138Z,4.30
2022-11-12T07:18:25.290Z,4.40
2022-11-12T07:20:52.223Z,4.50
2022-11-12T07:23:18.889Z,4.70
2022-11-12T07:25:45.566Z,4.70
2022-11-12T07:28:12.338Z,5.60
2022-11-12T07:30:39.042Z,4.90
2022-11-12T07:33:05.714Z,5.00
2022-11-12T07:35:32.279Z,5.00
2022-11-12T07:37:59.804Z,5.00
2022-11-12T07:40:26.604Z,5.00
2022-11-12T07:42:53.179Z,5.00
2022-11-12T07:45:19.856Z,5.10
2022-11-12T07:47:46.515Z,5.00
2022-11-12T07:50:13.131Z,5.10
2022-11-12T07:52:40.016Z,5.20
2022-11-12T07:55:07.065Z,5.00
2022-11-12T07:57:34.056Z,5.00
2022-11-12T08:00:00.686Z,5.00
2022-11-12T08:02:27.319Z,4.90
2022-11-12T08:04:54.400Z,4.90
2022-11-12T08:07:21.086Z,4.90
2022-11-12T08:09:48.205Z,4.90
2022-11-12T08:12:14.924Z,4.90
2022-11-12T08:14:41.582Z,5.00
2022-11-12T08:17:08.210Z,5.00
2022-11-12T08:19:34.842Z,5.10
2022-11-12T08:22:01.480Z,5.10
2022-11-12T08:24:28.108Z,5.20
2022-11-12T08:26:54.709Z,5.30
2022-11-12T08:29:23.291Z,5.20
2022-11-12T08:31:49.954Z,5.30
2022-11-12T08:34:21.557Z,5.30
2022-11-12T08:36:49.471Z,5.50
2022-11-12T08:39:16.106Z,5.60
2022-11-12T08:41:42.755Z,5.70
2022-11-12T08:44:09.405Z,7.70
2022-11-12T08:46:36.006Z,5.50
2022-11-12T08:49:02.654Z,5.70
2022-11-12T08:51:29.252Z,7.00
2022-11-12T08:53:56.216Z,5.70
2022-11-12T08:56:22.891Z,5.80
2022-11-12T08:58:49.514Z,5.80
2022-11-12T09:01:16.207Z,5.80
2022-11-12T09:03:42.865Z,5.60
2022-11-12T09:06:09.482Z,5.60
2022-11-12T09:08:36.763Z,5.60
2022-11-12T09:11:03.436Z,5.60
2022-11-12T09:13:30.248Z,5.60
2022-11-12T09:16:15.278Z,5.70
2022-11-12T09:18:42.020Z,5.80
2022-11-12T09:21:10.293Z,5.90
2022-11-12T09:23:36.991Z,5.90
2022-11-12T09:26:04.337Z,5.90
2022-11-12T09:28:31.497Z,5.90
2022-11-12T09:30:58.246Z,7.30
2022-11-12T09:33:26.755Z,5.90
2022-11-12T09:35:54.066Z,6.00
2022-11-12T09:38:22.239Z,6.10
2022-11-12T09:41:01.338Z,6.10
2022-11-12T09:43:51.458Z,6.20
2022-11-12T09:46:33.608Z,6.30
2022-11-12T09:49:08.251Z,6.40
2022-11-12T09:51:37.728Z,6.50
2022-11-12T09:54:24.673Z,6.60
2022-11-12T09:56:52.100Z,6.60
2022-11-12T09:59:19.082Z,6.60
2022-11-12T10:01:58.203Z,8.30
2022-11-12T10:04:43.384Z,6.80
2022-11-12T10:07:15.089Z,6.80
2022-11-12T10:10:01.462Z,6.90
2022-11-12T10:12:33.958Z,7.10
2022-11-12T10:15:34.626Z,7.30
2022-11-12T10:18:15.859Z,7.30
2022-11-12T10:20:53.038Z,7.40
2022-11-12T10:23:22.554Z,7.50
2022-11-12T10:25:50.559Z,7.50
2022-11-12T10:28:38.389Z,7.60
2022-11-12T10:31:12.567Z,7.70
2022-11-12T10:33:39.234Z,7.80
2022-11-12T10:36:12.130Z,7.90
2022-11-12T10:38:39.829Z,7.90
2022-11-12T10:41:18.237Z,8.00
2022-11-12T10:43:55.608Z,8.10
2022-11-12T10:46:29.691Z,8.20
2022-11-12T10:49:14.729Z,8.30
2022-11-12T10:51:41.404Z,8.40
2022-11-12T10:54:37.639Z,8.50
2022-11-12T10:57:36.991Z,8.50
2022-11-12T11:00:12.866Z,8.50
2022-11-12T11:02:51.247Z,8.60
2022-11-12T11:05:20.887Z,8.70
2022-11-12T11:07:50.721Z,8.70
2022-11-12T11:10:24.997Z,8.70
2022-11-12T11:13:08.544Z,8.80
2022-11-12T11:15:35.447Z,8.80
2022-11-12T11:18:02.139Z,8.80
2022-11-12T11:20:35.765Z,8.80
2022-11-12T11:23:06.922Z,8.80
2022-11-12T11:25:35.750Z,8.80
2022-11-12T11:28:14.276Z,10.50
2022-11-12T11:30:52.801Z,8.80
2022-11-12T11:33:19.487Z,8.80
2022-11-12T11:35:46.155Z,9.40
2022-11-12T11:38:28.468Z,8.90
2022-11-12T11:40:55.317Z,9.00
2022-11-12T11:43:28.134Z,9.00
2022-11-12T11:45:54.764Z,9.00
2022-11-12T11:48:24.822Z,9.00
2022-11-12T11:50:51.739Z,9.00
2022-11-12T11:53:18.360Z,9.00
2022-11-12T11:55:54.428Z,9.00
2022-11-12T11:58:46.245Z,9.10
2022-11-12T12:01:25.162Z,9.20
2022-11-12T12:04:10.796Z,9.20
2022-11-12T12:06:42.704Z,9.20
2022-11-12T12:09:29.012Z,9.30
2022-11-12T12:12:04.356Z,9.40
2022-11-12T12:14:34.217Z,9.50
2022-11-12T12:17:10.043Z,9.50
2022-11-12T12:20:03.233Z,9.60
2022-11-12T12:22:40.795Z,9.70
2022-11-12T12:25:17.813Z,9.90
2022-11-12T12:27:48.369Z,10.00
2022-11-12T12:30:22.447Z,10.60
2022-11-12T12:33:00.339Z,10.20
2022-11-12T12:35:30.842Z,10.30
2022-11-12T12:38:01.935Z,10.60
2022-11-12T12:40:37.569Z,12.10
2022-11-12T12:43:07.314Z,10.60
2022-11-12T12:45:38.321Z,10.60
2022-11-12T12:48:07.329Z,10.60
2022-11-12T12:50:36.329Z,10.60
2022-11-12T12:53:15.975Z,12.30
2022-11-12T12:55:43.736Z,10.70
2022-11-12T12:58:23.921Z,10.90
2022-11-12T13:00:52.438Z,10.70
2022-11-12T13:03:37.892Z,11.20
2022-11-12T13:06:08.775Z,10.80
2022-11-12T13:08:37.017Z,10.80
2022-11-12T13:11:03.700Z,10.90
2022-11-12T13:13:32.589Z,10.90
2022-11-12T13:16:00.124Z,10.90
2022-11-12T13:18:39.115Z,11.50
2022-11-12T13:21:19.674Z,11.00
2022-11-12T13:24:04.852Z,11.00
2022-11-12T13:26:51.455Z,11.10
2022-11-12T13:29:38.446Z,11.00
2022-11-12T13:32:25.055Z,11.00
2022-11-12T13:34:51.736Z,11.50
2022-11-12T13:37:19.827Z,11.40
2022-11-12T13:39:46.820Z,12.20
2022-11-12T13:42:33.260Z,11.10
2022-11-12T13:45:00.769Z,10.90
2022-11-12T13:47:29.485Z,11.80
2022-11-12T13:49:58.296Z,10.90
2022-11-12T13:52:25.144Z,12.00
2022-11-12T13:55:01.674Z,10.80
2022-11-12T13:57:30.169Z,10.70
2022-11-12T14:00:10.546Z,11.70
2022-11-12T14:02:41.502Z,10.70
2022-11-12T14:05:13.713Z,10.70
2022-11-12T14:07:52.033Z,10.70
2022-11-12T14:10:37.054Z,10.60
2022-11-12T14:13:03.734Z,10.60
2022-11-12T14:15:34.673Z,10.60
2022-11-12T14:18:04.220Z,10.60
2022-11-12T14:20:31.271Z,10.50
2022-11-12T14:23:04.061Z,10.60
2022-11-12T14:25:31.254Z,11.60
2022-11-12T14:27:58.001Z,10.50
2022-11-12T14:30:26.075Z,11.60
2022-11-12T14:32:53.775Z,10.40
2022-11-12T14:35:26.916Z,11.70
2022-11-12T14:37:55.940Z,10.30
2022-11-12T14:40:27.501Z,10.30
2022-11-12T14:42:54.579Z,10.20
2022-11-12T14:45:22.095Z,10.50
2022-11-12T14:47:49.935Z,10.10
2022-11-12T14:50:19.198Z,11.50
2022-11-12T14:52:48.969Z,11.60
2022-11-12T14:55:17.361Z,10.00
2022-11-12T14:57:44.045Z,9.90
2022-11-12T15:00:35.351Z,11.00
2022-11-12T15:03:02.196Z,9.80
2022-11-12T15:05:28.887Z,10.90
2022-11-12T15:07:58.517Z,9.80
2022-11-12T15:10:31.387Z,9.70
2022-11-12T15:13:12.594Z,9.70
2022-11-12T15:15:40.573Z,9.60
2022-11-12T15:18:14.056Z,11.00
2022-11-12T15:20:40.791Z,9.50
2022-11-12T15:23:14.945Z,9.70
2022-11-12T15:25:42.001Z,9.60
2022-11-12T15:28:21.484Z,9.40
2022-11-12T15:31:02.411Z,9.30
2022-11-12T15:33:29.729Z,9.30
2022-11-12T15:35:58.013Z,9.30
2022-11-12T15:38:24.938Z,9.80
2022-11-12T15:40:57.700Z,9.30
2022-11-12T15:43:26.360Z,10.60
2022-11-12T15:45:54.539Z,9.00
2022-11-12T15:48:21.318Z,9.10
2022-11-12T15:50:48.469Z,8.80
2022-11-12T15:53:15.394Z,8.70
2022-11-12T15:55:43.411Z,8.60
2022-11-12T15:58:13.071Z,10.10
2022-11-12T16:00:39.763Z,8.50
2022-11-12T16:03:12.675Z,10.00
2022-11-12T16:05:39.344Z,8.40
2022-11-12T16:08:06.218Z,9.20
2022-11-12T16:10:32.845Z,9.50
2022-11-12T16:13:00.594Z,8.90
2022-11-12T16:15:27.347Z,8.30
2022-11-12T16:17:55.901Z,8.30
2022-11-12T16:20:24.590Z,8.40
2022-11-12T16:22:51.919Z,8.50
2022-11-12T16:25:19.137Z,7.90
2022-11-12T16:27:47.383Z,7.90
2022-11-12T16:30:18.192Z,7.80
2022-11-12T16:32:45.447Z,7.70
2022-11-12T16:35:12.131Z,7.60
2022-11-12T16:37:38.871Z,7.50
2022-11-12T16:40:06.832Z,8.00
2022-11-12T16:42:34.079Z,7.30
2022-11-12T16:45:00.926Z,8.40
2022-11-12T16:47:27.549Z,7.20
2022-11-12T16:49:54.190Z,7.20
2022-11-12T16:52:21.114Z,7.20
2022-11-12T16:54:47.858Z,6.90
2022-11-12T16:57:14.516Z,7.70
2022-11-12T16:59:41.159Z,6.70
2022-11-12T17:02:13.677Z,6.70
2022-11-12T17:04:40.279Z,6.60
2022-11-12T17:07:06.996Z,6.60
2022-11-12T17:09:33.689Z,6.40
2022-11-12T17:12:00.332Z,6.20
2022-11-12T17:14:28.536Z,6.20
2022-11-12T17:16:55.407Z,6.10
2022-11-12T17:19:22.053Z,6.10
2022-11-12T17:21:48.755Z,6.00
2022-11-12T17:24:15.486Z,5.90
2022-11-12T17:26:42.119Z,5.90
2022-11-12T17:29:08.839Z,5.80
2022-11-12T17:31:35.629Z,5.80
2022-11-12T17:34:04.391Z,5.60
2022-11-12T17:36:31.984Z,5.90
2022-11-12T17:38:59.414Z,5.50
2022-11-12T17:41:28.692Z,5.50
2022-11-12T17:43:56.386Z,5.40
2022-11-12T17:46:23.006Z,5.20
2022-11-12T17:48:49.981Z,5.20
2022-11-12T17:51:18.148Z,5.10
2022-11-12T17:53:44.899Z,5.10
2022-11-12T17:56:13.062Z,5.10
2022-11-12T17:58:39.754Z,6.50
2022-11-12T18:01:06.440Z,5.00
2022-11-12T18:03:33.362Z,4.90
2022-11-12T18:06:00.263Z,4.90
2022-11-12T18:08:26.939Z,4.80
2022-11-12T18:10:53.587Z,4.70
2022-11-12T18:13:20.500Z,4.60
2022-11-12T18:15:47.186Z,4.50
2022-11-12T18:18:13.963Z,4.50
2022-11-12T18:20:42.404Z,4.40
2022-11-12T18:23:09.570Z,4.40
2022-11-12T18:25:38.149Z,4.50
2022-11-12T18:28:06.022Z,4.40
2022-11-12T18:30:33.042Z,4.30
2022-11-12T18:32:59.766Z,4.40
2022-11-12T18:35:29.798Z,4.30
2022-11-12T18:37:56.782Z,4.40
2022-11-12T18:40:23.862Z,4.30
2022-11-12T18:42:50.523Z,4.20
2022-11-12T18:45:17.212Z,4.30
2022-11-12T18:47:43.855Z,4.40
2022-11-12T18:50:10.608Z,4.20
2022-11-12T18:52:37.340Z,5.20
2022-11-12T18:55:04.211Z,3.90
2022-11-12T18:57:30.861Z,3.80
2022-11-12T18:59:58.261Z,3.80
2022-11-12T19:02:24.883Z,5.40
2022-11-12T19:04:51.627Z,5.20
2022-11-12T19:07:18.417Z,3.90
2022-11-12T19:09:45.223Z,3.90
2022-11-12T19:12:11.879Z,4.60
2022-11-12T19:14:38.580Z,4.00
2022-11-12T19:17:05.204Z,4.10
2022-11-12T19:19:31.923Z,4.10
2022-11-12T19:21:58.591Z,4.00
2022-11-12T19:24:25.268Z,5.00
2022-11-12T19:26:51.927Z,3.90
2022-11-12T19:29:18.602Z,3.70
2022-11-12T19:31:46.099Z,3.80
2022-11-12T19:34:12.790Z,3.80
2022-11-12T19:36:39.436Z,3.80
2022-11-12T19:39:06.055Z,3.90
2022-11-12T19:41:32.698Z,3.90
2022-11-12T19:43:59.316Z,3.90
2022-11-12T19:46:25.972Z,3.90
2022-11-12T19:48:52.663Z,3.90
2022-11-12T19:51:19.330Z,3.90
2022-11-12T19:53:45.992Z,3.90
2022-11-12T19:56:14.264Z,3.80
2022-11-12T19:58:44.216Z,3.90
2022-11-12T20:01:12.600Z,5.30
2022-11-12T20:03:39.660Z,3.80
2022-11-12T20:06:07.472Z,3.80
2022-11-12T20:08:34.617Z,3.70
2022-11-12T20:11:01.840Z,6.10
2022-11-12T20:13:28.840Z,3.50
2022-11-12T20:15:55.823Z,3.40
2022-11-12T20:18:22.820Z,3.30
2022-11-12T20:20:53.864Z,3.20
2022-11-12T20:23:20.914Z,3.20
2022-11-12T20:25:47.882Z,3.20
2022-11-12T20:28:14.529Z,3.30
2022-11-12T20:30:41.156Z,3.30
2022-11-12T20:33:07.857Z,3.30
2022-11-12T20:35:37.732Z,3.40
2022-11-12T20:38:04.724Z,3.40
2022-11-12T20:40:32.184Z,3.40
2022-11-12T20:42:58.938Z,3.40
2022-11-12T20:45:25.618Z,3.40
2022-11-12T20:47:52.185Z,3.40
2022-11-12T20:50:18.896Z,3.30
2022-11-12T20:52:45.581Z,3.30
2022-11-12T20:55:12.267Z,3.20
2022-11-12T20:57:38.982Z,3.20
2022-11-12T21:00:06.036Z,3.20
2022-11-12T21:02:32.679Z,3.10
2022-11-12T21:04:59.360Z,3.10
2022-11-12T21:07:26.123Z,3.10
2022-11-12T21:09:52.894Z,3.10
2022-11-12T21:12:19.609Z,3.00
2022-11-12T21:14:50.397Z,3.00
2022-11-12T21:17:18.186Z,3.00
2022-11-12T21:19:44.782Z,4.10
2022-11-12T21:22:11.439Z,3.00
2022-11-12T21:24:38.092Z,3.00
2022-11-12T21:27:04.859Z,3.10
2022-11-12T21:29:31.473Z,3.20
2022-11-12T21:31:58.313Z,3.30
2022-11-12T21:34:24.968Z,3.40
2022-11-12T21:36:51.675Z,3.30
2022-11-12T21:39:18.296Z,3.40
2022-11-12T21:41:44.872Z,3.40
2022-11-12T21:44:11.602Z,3.40
2022-11-12T21:46:38.478Z,4.50
2022-11-12T21:49:05.216Z,3.50
2022-11-12T21:51:33.305Z,5.10
2022-11-12T21:54:01.752Z,3.60
2022-11-12T21:56:28.567Z,3.60
2022-11-12T21:58:59.496Z,3.60
2022-11-12T22:01:27.193Z,3.60
2022-11-12T22:03:54.617Z,3.70
2022-11-12T22:06:22.181Z,4.30
2022-11-12T22:08:51.462Z,3.80
2022-11-12T22:11:18.173Z,3.80
2022-11-12T22:13:45.033Z,3.80
2022-11-12T22:16:21.826Z,2.00
2022-11-12T22:18:49.817Z,3.70
2022-11-12T22:21:17.840Z,3.70
2022-11-12T22:23:44.965Z,3.70
2022-11-12T22:26:13.359Z,3.60
2022-11-12T22:28:40.264Z,3.60
2022-11-12T22:31:08.325Z,3.60
2022-11-12T22:33:35.167Z,3.60
2022-11-12T22:36:03.046Z,3.50
2022-11-12T22:38:36.858Z,3.50
2022-11-12T22:41:04.744Z,3.50
2022-11-12T22:43:32.833Z,3.50
2022-11-12T22:46:03.583Z,4.30
2022-11-12T22:48:30.497Z,3.40
2022-11-12T22:51:01.556Z,3.40
2022-11-12T22:53:28.501Z,3.40
2022-11-12T22:55:55.171Z,3.50
2022-11-12T22:58:22.265Z,3.50
2022-11-12T23:00:49.066Z,3.50
2022-11-12T23:03:15.722Z,3.40
2022-11-12T23:05:42.588Z,4.60
2022-11-12T23:08:09.351Z,3.80
2022-11-12T23:10:36.112Z,3.30
2022-11-12T23:13:02.751Z,3.30
2022-11-12T23:15:29.971Z,3.30
2022-11-12T23:17:56.709Z,3.30
2022-11-12T23:20:23.436Z,3.20
2022-11-12T23:22:51.082Z,3.10
2022-11-12T23:25:17.732Z,4.30
2022-11-12T23:27:44.384Z,3.10
2022-11-12T23:30:11.254Z,3.00
2022-11-12T23:32:37.880Z,2.10
2022-11-12T23:35:04.693Z,2.90
2022-11-12T23:37:31.300Z,2.90
2022-11-12T23:39:58.008Z,3.00
2022-11-12T23:42:24.598Z,3.00
2022-11-12T23:44:51.334Z,2.90
2022-11-12T23:47:17.912Z,2.90
2022-11-12T23:49:44.581Z,2.80
2022-11-12T23:52:11.231Z,2.80
2022-11-12T23:54:37.863Z,2.80
2022-11-12T23:57:04.675Z,2.80
2022-11-12T23:59:31.430Z,4.20
